Observation data for Reese Center on 07/11/2018      Previous  Date       Current Mesonet Observations  Soil Data  Daily Summary Page  Observations in Plain Language
KREE 110505Z 16006KT 25/15 A3016 RMK A01 T02460150  RH  056%=      5-min Rain = 0
KREE 110510Z 16007KT 25/15 A3016 RMK A01 T02450150  RH  057%=      5-min Rain = 0
KREE 110515Z 16006KT 24/15 A3015 RMK A01 T02440150  RH  057%=      5-min Rain = 0
KREE 110520Z 17006KT 24/15 A3015 RMK A01 T02420150  RH  058%=      5-min Rain = 0
KREE 110525Z 19006KT 24/15 A3016 RMK A01 T02400149  RH  058%=      5-min Rain = 0
KREE 110530Z 19006KT 24/15 A3016 RMK A01 T02390149  RH  059%=      5-min Rain = 0
KREE 110535Z 18006KT 24/15 A3016 RMK A01 T02380150  RH  059%=      5-min Rain = 0
KREE 110540Z 17005KT 24/15 A3016 RMK A01 T02370150  RH  059%=      5-min Rain = 0
KREE 110545Z 18005KT 24/15 A3016 RMK A01 T02360150  RH  060%=      5-min Rain = 0
KREE 110550Z 17005KT 24/15 A3016 RMK A01 T02350150  RH  060%=      5-min Rain = 0
KREE 110555Z 17005KT 23/15 A3016 RMK A01 T02340150  RH  060%=      5-min Rain = 0
KREE 110600Z 17005KT 23/15 A3016 RMK A01 T02330150  RH  061%=      5-min Rain = 0
KREE 110605Z 17006KT 23/15 A3016 RMK A01 T02320150  RH  061%=      5-min Rain = 0
KREE 110610Z 17006KT 23/15 A3015 RMK A01 T02320150  RH  061%=      5-min Rain = 0
KREE 110615Z 17006KT 23/15 A3015 RMK A01 T02310150  RH  061%=      5-min Rain = 0
KREE 110620Z 17006KT 23/15 A3015 RMK A01 T02300150  RH  062%=      5-min Rain = 0
KREE 110625Z 16005KT 23/15 A3015 RMK A01 T02290150  RH  062%=      5-min Rain = 0
KREE 110630Z 16006KT 23/15 A3015 RMK A01 T02280151  RH  063%=      5-min Rain = 0
KREE 110635Z 17005KT 23/15 A3015 RMK A01 T02280151  RH  063%=      5-min Rain = 0
KREE 110640Z 17006KT 23/15 A3015 RMK A01 T02280152  RH  064%=      5-min Rain = 0
KREE 110645Z 18006KT 23/15 A3015 RMK A01 T02280152  RH  064%=      5-min Rain = 0
KREE 110650Z 18006KT 23/15 A3015 RMK A01 T02270153  RH  064%=      5-min Rain = 0
KREE 110655Z 18005KT 23/15 A3015 RMK A01 T02280153  RH  064%=      5-min Rain = 0
KREE 110700Z 19004KT 23/15 A3015 RMK A01 T02260153  RH  065%=      5-min Rain = 0
KREE 110705Z 19004KT 22/15 A3015 RMK A01 T02240153  RH  065%=      5-min Rain = 0
KREE 110710Z 18005KT 22/15 A3015 RMK A01 T02220153  RH  066%=      5-min Rain = 0
KREE 110715Z 18004KT 22/15 A3015 RMK A01 T02230153  RH  066%=      5-min Rain = 0
KREE 110720Z 18005KT 22/15 A3015 RMK A01 T02220153  RH  066%=      5-min Rain = 0
KREE 110725Z 18004KT 22/15 A3015 RMK A01 T02210153  RH  067%=      5-min Rain = 0
KREE 110730Z 18004KT 22/15 A3015 RMK A01 T02200153  RH  067%=      5-min Rain = 0
KREE 110735Z 17004KT 22/15 A3015 RMK A01 T02190153  RH  067%=      5-min Rain = 0
KREE 110740Z 16005KT 22/15 A3015 RMK A01 T02180152  RH  068%=      5-min Rain = 0
KREE 110745Z 17005KT 22/15 A3015 RMK A01 T02160152  RH  068%=      5-min Rain = 0
KREE 110750Z 17004KT 22/15 A3015 RMK A01 T02160153  RH  068%=      5-min Rain = 0
KREE 110755Z 17004KT 22/15 A3015 RMK A01 T02170153  RH  068%=      5-min Rain = 0
KREE 110800Z 17004KT 22/15 A3015 RMK A01 T02170153  RH  068%=      5-min Rain = 0
KREE 110805Z 16004KT 22/15 A3015 RMK A01 T02170153  RH  068%=      5-min Rain = 0
KREE 110810Z 17004KT 22/15 A3015 RMK A01 T02160153  RH  069%=      5-min Rain = 0
KREE 110815Z 17004KT 22/15 A3015 RMK A01 T02150153  RH  069%=      5-min Rain = 0
KREE 110820Z 17004KT 22/15 A3015 RMK A01 T02150154  RH  069%=      5-min Rain = 0
KREE 110825Z 17005KT 22/15 A3015 RMK A01 T02150154  RH  070%=      5-min Rain = 0
KREE 110830Z 17005KT 22/15 A3015 RMK A01 T02150154  RH  070%=      5-min Rain = 0
KREE 110835Z 17005KT 21/15 A3015 RMK A01 T02140153  RH  070%=      5-min Rain = 0
KREE 110840Z 17005KT 21/15 A3015 RMK A01 T02120154  RH  071%=      5-min Rain = 0
KREE 110845Z 17005KT 21/15 A3015 RMK A01 T02120154  RH  071%=      5-min Rain = 0
KREE 110850Z 16006KT 21/15 A3015 RMK A01 T02110154  RH  072%=      5-min Rain = 0
KREE 110855Z 16007KT 21/16 A3015 RMK A01 T02100156  RH  073%=      5-min Rain = 0
KREE 110900Z 16006KT 21/16 A3015 RMK A01 T02100157  RH  073%=      5-min Rain = 0
KREE 110905Z 16007KT 21/16 A3015 RMK A01 T02110158  RH  073%=      5-min Rain = 0
KREE 110910Z 16006KT 21/16 A3015 RMK A01 T02110158  RH  073%=      5-min Rain = 0
KREE 110915Z 16006KT 21/16 A3015 RMK A01 T02100157  RH  074%=      5-min Rain = 0
KREE 110920Z 17005KT 21/16 A3015 RMK A01 T02090158  RH  074%=      5-min Rain = 0
KREE 110925Z 17006KT 21/16 A3015 RMK A01 T02100158  RH  074%=      5-min Rain = 0
KREE 110930Z 17006KT 21/16 A3014 RMK A01 T02090158  RH  074%=      5-min Rain = 0
KREE 110935Z 17006KT 21/16 A3014 RMK A01 T02090158  RH  074%=      5-min Rain = 0
KREE 110940Z 17006KT 21/16 A3014 RMK A01 T02080158  RH  075%=      5-min Rain = 0
KREE 110945Z 17006KT 21/16 A3014 RMK A01 T02070158  RH  075%=      5-min Rain = 0
KREE 110950Z 17006KT 21/16 A3014 RMK A01 T02070158  RH  075%=      5-min Rain = 0
KREE 110955Z 16005KT 21/16 A3014 RMK A01 T02060158  RH  075%=      5-min Rain = 0
KREE 111000Z 16005KT 21/16 A3014 RMK A01 T02050157  RH  076%=      5-min Rain = 0
KREE 111005Z 15005KT 20/16 A3014 RMK A01 T02040158  RH  076%=      5-min Rain = 0
KREE 111010Z 15005KT 20/16 A3014 RMK A01 T02040158  RH  077%=      5-min Rain = 0
KREE 111015Z 16005KT 21/16 A3014 RMK A01 T02050159  RH  077%=      5-min Rain = 0
KREE 111020Z 15005KT 21/16 A3014 RMK A01 T02070158  RH  075%=      5-min Rain = 0
KREE 111025Z 14005KT 21/16 A3014 RMK A01 T02080157  RH  074%=      5-min Rain = 0
KREE 111030Z 13005KT 21/16 A3015 RMK A01 T02080156  RH  074%=      5-min Rain = 0
KREE 111035Z 14004KT 21/16 A3015 RMK A01 T02070158  RH  076%=      5-min Rain = 0
KREE 111040Z 14005KT 21/16 A3015 RMK A01 T02070159  RH  076%=      5-min Rain = 0
KREE 111045Z 14005KT 21/16 A3015 RMK A01 T02060159  RH  076%=      5-min Rain = 0
KREE 111050Z 14005KT 21/16 A3015 RMK A01 T02050158  RH  076%=      5-min Rain = 0
KREE 111055Z 14004KT 21/16 A3015 RMK A01 T02050158  RH  076%=      5-min Rain = 0
KREE 111100Z 14005KT 21/16 A3015 RMK A01 T02050158  RH  076%=      5-min Rain = 0
KREE 111105Z 15005KT 21/16 A3015 RMK A01 T02060158  RH  076%=      5-min Rain = 0
KREE 111110Z 16005KT 21/16 A3015 RMK A01 T02080158  RH  075%=      5-min Rain = 0
KREE 111115Z 16005KT 21/16 A3015 RMK A01 T02090158  RH  074%=      5-min Rain = 0
KREE 111120Z 16005KT 21/16 A3015 RMK A01 T02090157  RH  074%=      5-min Rain = 0
KREE 111125Z 17005KT 21/16 A3015 RMK A01 T02090156  RH  073%=      5-min Rain = 0
KREE 111130Z 16005KT 21/16 A3015 RMK A01 T02090156  RH  073%=      5-min Rain = 0
KREE 111135Z 16005KT 21/16 A3015 RMK A01 T02080155  RH  073%=      5-min Rain = 0
KREE 111140Z 16006KT 21/15 A3015 RMK A01 T02070153  RH  073%=      5-min Rain = 0
KREE 111145Z 16006KT 21/15 A3015 RMK A01 T02060151  RH  072%=      5-min Rain = 0
KREE 111150Z 16006KT 21/15 A3015 RMK A01 T02050149  RH  072%=      5-min Rain = 0
KREE 111155Z 16007KT 21/15 A3015 RMK A01 T02050147  RH  071%=      5-min Rain = 0
KREE 111200Z 17007KT 21/15 A3015 RMK A01 T02070145  RH  069%=      5-min Rain = 0
KREE 111205Z 17007KT 21/14 A3015 RMK A01 T02080144  RH  068%=      5-min Rain = 0
KREE 111210Z 17007KT 21/14 A3015 RMK A01 T02080143  RH  068%=      5-min Rain = 0
KREE 111215Z 17007KT 21/14 A3015 RMK A01 T02080142  RH  068%=      5-min Rain = 0
KREE 111220Z 17007KT 21/14 A3015 RMK A01 T02080142  RH  067%=      5-min Rain = 0
KREE 111225Z 17008KT 21/14 A3015 RMK A01 T02100141  RH  066%=      5-min Rain = 0
KREE 111230Z 17007KT 21/14 A3015 RMK A01 T02110142  RH  066%=      5-min Rain = 0
KREE 111235Z 17007KT 21/14 A3016 RMK A01 T02120142  RH  066%=      5-min Rain = 0
KREE 111240Z 17008KT 21/14 A3016 RMK A01 T02130141  RH  065%=      5-min Rain = 0
KREE 111245Z 17008KT 21/14 A3016 RMK A01 T02130141  RH  064%=      5-min Rain = 0
KREE 111250Z 17008KT 21/14 A3015 RMK A01 T02140140  RH  064%=      5-min Rain = 0
KREE 111255Z 17009KT 22/14 A3015 RMK A01 T02150140  RH  064%=      5-min Rain = 0
KREE 111300Z 17009KT 22/14 A3015 RMK A01 T02150141  RH  064%=      5-min Rain = 0
KREE 111305Z 17010KT 22/14 A3015 RMK A01 T02160141  RH  064%=      5-min Rain = 0
KREE 111310Z 17010KT 22/14 A3015 RMK A01 T02170142  RH  064%=      5-min Rain = 0
KREE 111315Z 18011KT 22/14 A3015 RMK A01 T02180143  RH  063%=      5-min Rain = 0
KREE 111320Z 18011KT 22/14 A3015 RMK A01 T02190144  RH  064%=      5-min Rain = 0
KREE 111325Z 18011KT 22/14 A3015 RMK A01 T02190144  RH  064%=      5-min Rain = 0
KREE 111330Z 18012KT 22/15 A3015 RMK A01 T02200145  RH  064%=      5-min Rain = 0
KREE 111335Z 18011KT 22/15 A3016 RMK A01 T02210146  RH  064%=      5-min Rain = 0
KREE 111340Z 18012KT 22/15 A3016 RMK A01 T02220146  RH  063%=      5-min Rain = 0
KREE 111345Z 18012KT 22/15 A3016 RMK A01 T02230147  RH  063%=      5-min Rain = 0
KREE 111350Z 18011KT 23/15 A3016 RMK A01 T02260147  RH  062%=      5-min Rain = 0
KREE 111355Z 19011KT 23/15 A3016 RMK A01 T02270148  RH  062%=      5-min Rain = 0
KREE 111400Z 19012G18KT 23/15 A3016 RMK A01 T02330149  RH  061%=      5-min Rain = 0
KREE 111405Z 19014KT 24/15 A3016 RMK A01 T02370149  RH  059%=      5-min Rain = 0
KREE 111410Z 19014KT 24/15 A3016 RMK A01 T02410150  RH  058%=      5-min Rain = 0
KREE 111415Z 19014KT 24/15 A3016 RMK A01 T02420149  RH  057%=      5-min Rain = 0
KREE 111420Z 19014KT 24/15 A3017 RMK A01 T02400148  RH  058%=      5-min Rain = 0
KREE 111425Z 19013KT 24/15 A3017 RMK A01 T02410150  RH  058%=      5-min Rain = 0
KREE 111430Z 18014KT 25/15 A3017 RMK A01 T02460151  RH  056%=      5-min Rain = 0
KREE 111435Z 19013KT 25/15 A3016 RMK A01 T02500151  RH  055%=      5-min Rain = 0
KREE 111440Z 19013KT 25/15 A3016 RMK A01 T02530151  RH  054%=      5-min Rain = 0
KREE 111445Z 18015KT 26/15 A3016 RMK A01 T02560150  RH  053%=      5-min Rain = 0
KREE 111450Z 19015KT 26/15 A3016 RMK A01 T02570149  RH  053%=      5-min Rain = 0
KREE 111455Z 19014KT 25/15 A3016 RMK A01 T02540148  RH  053%=      5-min Rain = 0
KREE 111500Z 19014KT 25/15 A3017 RMK A01 T02540147  RH  053%=      5-min Rain = 0
KREE 111505Z 19014KT 26/15 A3016 RMK A01 T02580148  RH  052%=      5-min Rain = 0
KREE 111510Z 19013KT 26/15 A3016 RMK A01 T02600150  RH  052%=      5-min Rain = 0
KREE 111515Z 19013KT 27/15 A3016 RMK A01 T02650150  RH  050%=      5-min Rain = 0
KREE 111520Z 19012KT 26/15 A3016 RMK A01 T02640148  RH  050%=      5-min Rain = 0
KREE 111525Z 19012KT 26/15 A3016 RMK A01 T02610148  RH  051%=      5-min Rain = 0
KREE 111530Z 19012KT 26/15 A3016 RMK A01 T02620148  RH  050%=      5-min Rain = 0
KREE 111535Z 19012KT 27/15 A3016 RMK A01 T02650150  RH  050%=      5-min Rain = 0
KREE 111540Z 18012KT 27/15 A3016 RMK A01 T02700150  RH  049%=      5-min Rain = 0
KREE 111545Z 19012KT 27/15 A3016 RMK A01 T02700149  RH  049%=      5-min Rain = 0
KREE 111550Z 18010G16KT 27/15 A3016 RMK A01 T02700150  RH  049%=      5-min Rain = 0
KREE 111555Z 18013KT 28/15 A3016 RMK A01 T02770149  RH  047%=      5-min Rain = 0
KREE 111600Z 17012KT 28/15 A3016 RMK A01 T02780147  RH  046%=      5-min Rain = 0
KREE 111605Z 17012KT 28/15 A3016 RMK A01 T02780147  RH  046%=      5-min Rain = 0
KREE 111610Z 17013G18KT 28/14 A3016 RMK A01 T02830144  RH  044%=      5-min Rain = 0
KREE 111615Z 18013KT 29/15 A3016 RMK A01 T02860145  RH  043%=      5-min Rain = 0
KREE 111620Z 17013KT 29/14 A3015 RMK A01 T02860143  RH  043%=      5-min Rain = 0
KREE 111625Z 18012KT 28/15 A3015 RMK A01 T02840145  RH  044%=      5-min Rain = 0
KREE 111630Z 18011KT 28/14 A3015 RMK A01 T02800142  RH  044%=      5-min Rain = 0
KREE 111635Z 18012KT 28/14 A3016 RMK A01 T02840142  RH  043%=      5-min Rain = 0
KREE 111640Z 18012G18KT 29/14 A3015 RMK A01 T02910139  RH  040%=      5-min Rain = 0
KREE 111645Z 18014KT 29/14 A3015 RMK A01 T02910142  RH  041%=      5-min Rain = 0
KREE 111650Z 18013G18KT 29/14 A3015 RMK A01 T02940136  RH  039%=      5-min Rain = 0
KREE 111655Z 18012G17KT 30/14 A3015 RMK A01 T02950135  RH  038%=      5-min Rain = 0
KREE 111700Z 19012G17KT 29/14 A3015 RMK A01 T02900136  RH  040%=      5-min Rain = 0
KREE 111705Z 20013KT 29/13 A3015 RMK A01 T02920131  RH  038%=      5-min Rain = 0
KREE 111710Z 17014KT 30/12 A3015 RMK A01 T02970121  RH  035%=      5-min Rain = 0
KREE 111715Z 17013G20KT 30/11 A3015 RMK A01 T03010112  RH  032%=      5-min Rain = 0
KREE 111720Z 17013G18KT 31/11 A3015 RMK A01 T03050112  RH  031%=      5-min Rain = 0
KREE 111725Z 17013G20KT 31/12 A3015 RMK A01 T03060115  RH  031%=      5-min Rain = 0
KREE 111730Z 17012G17KT 31/12 A3015 RMK A01 T03080119  RH  032%=      5-min Rain = 0
KREE 111735Z 18015G22KT 31/12 A3014 RMK A01 T03090119  RH  032%=      5-min Rain = 0
KREE 111740Z 16016G21KT 31/12 A3014 RMK A01 T03110118  RH  031%=      5-min Rain = 0
KREE 111745Z 16017G25KT 32/12 A3014 RMK A01 T03170116  RH  030%=      5-min Rain = 0
KREE 111750Z 15018G25KT 31/11 A3014 RMK A01 T03140111  RH  029%=      5-min Rain = 0
KREE 111755Z 16016G22KT 31/11 A3014 RMK A01 T03130114  RH  030%=      5-min Rain = 0
KREE 111800Z 17017G22KT 31/12 A3014 RMK A01 T03130115  RH  030%=      5-min Rain = 0
KREE 111805Z 17014G19KT 31/12 A3013 RMK A01 T03110116  RH  031%=      5-min Rain = 0
KREE 111810Z 16014G23KT 31/12 A3013 RMK A01 T03120118  RH  031%=      5-min Rain = 0
KREE 111815Z 16016G21KT 31/12 A3013 RMK A01 T03130116  RH  030%=      5-min Rain = 0
KREE 111820Z 16016G26KT 32/12 A3013 RMK A01 T03150116  RH  030%=      5-min Rain = 0
KREE 111825Z 17017G22KT 32/12 A3013 RMK A01 T03150118  RH  030%=      5-min Rain = 0
KREE 111830Z 16016G23KT 32/12 A3012 RMK A01 T03170120  RH  030%=      5-min Rain = 0
KREE 111835Z 15016G23KT 32/12 A3012 RMK A01 T03190119  RH  030%=      5-min Rain = 0
KREE 111840Z 16017G25KT 32/12 A3012 RMK A01 T03170119  RH  030%=      5-min Rain = 0
KREE 111845Z 18017G25KT 32/12 A3011 RMK A01 T03160116  RH  030%=      5-min Rain = 0
KREE 111850Z 17016G22KT 32/12 A3011 RMK A01 T03200116  RH  029%=      5-min Rain = 0
KREE 111855Z 17016G22KT 32/12 A3011 RMK A01 T03190115  RH  029%=      5-min Rain = 0
KREE 111900Z 17016G22KT 32/11 A3011 RMK A01 T03150113  RH  029%=      5-min Rain = 0
KREE 111905Z 17018G24KT 32/11 A3011 RMK A01 T03150113  RH  030%=      5-min Rain = 0
KREE 111910Z 16015G21KT 32/12 A3011 RMK A01 T03230115  RH  028%=      5-min Rain = 0
KREE 111915Z 17018G23KT 32/11 A301 RMK A01 T03230114  RH  028%=      5-min Rain = 0
KREE 111920Z 17014G19KT 32/11 A301 RMK A01 T03230114  RH  028%=      5-min Rain = 0
KREE 111925Z 18017G27KT 33/11 A301 RMK A01 T03250114  RH  028%=      5-min Rain = 0
KREE 111930Z 18016G22KT 33/11 A301 RMK A01 T03250113  RH  028%=      5-min Rain = 0
KREE 111935Z 16017G26KT 32/11 A3009 RMK A01 T03240113  RH  028%=      5-min Rain = 0
KREE 111940Z 17016G25KT 33/11 A3009 RMK A01 T03250113  RH  028%=      5-min Rain = 0
KREE 111945Z 17019G27KT 33/11 A3009 RMK A01 T03270112  RH  027%=      5-min Rain = 0
KREE 111950Z 17016G24KT 32/11 A3009 RMK A01 T03220112  RH  028%=      5-min Rain = 0
KREE 111955Z 17017G25KT 32/11 A3009 RMK A01 T03220112  RH  028%=      5-min Rain = 0
KREE 112000Z 17017G25KT 33/11 A3009 RMK A01 T03260111  RH  027%=      5-min Rain = 0
KREE 112005Z 18016G24KT 33/11 A3009 RMK A01 T03290110  RH  027%=      5-min Rain = 0
KREE 112010Z 18016G22KT 33/11 A3009 RMK A01 T03270111  RH  027%=      5-min Rain = 0
KREE 112015Z 17016G23KT 32/11 A3008 RMK A01 T03220110  RH  028%=      5-min Rain = 0
KREE 112020Z 17017G22KT 33/11 A3008 RMK A01 T03270109  RH  027%=      5-min Rain = 0
KREE 112025Z 19016G27KT 33/11 A3008 RMK A01 T03280108  RH  026%=      5-min Rain = 0
KREE 112030Z 18017G24KT 33/11 A3008 RMK A01 T03290108  RH  026%=      5-min Rain = 0
KREE 112035Z 19018KT 33/11 A3007 RMK A01 T03320112  RH  027%=      5-min Rain = 0
KREE 112040Z 16017G24KT 33/11 A3007 RMK A01 T03320109  RH  026%=      5-min Rain = 0
KREE 112045Z 15016G22KT 33/11 A3007 RMK A01 T03270109  RH  027%=      5-min Rain = 0
KREE 112050Z 16016G23KT 33/11 A3007 RMK A01 T03330110  RH  026%=      5-min Rain = 0
KREE 112055Z 14016G22KT 33/11 A3006 RMK A01 T03280109  RH  027%=      5-min Rain = 0
KREE 112100Z 17016G23KT 33/11 A3006 RMK A01 T03320108  RH  026%=      5-min Rain = 0
KREE 112105Z 17015G22KT 33/11 A3006 RMK A01 T03330106  RH  025%=      5-min Rain = 0
KREE 112110Z 17016G26KT 33/11 A3006 RMK A01 T03280111  RH  027%=      5-min Rain = 0
KREE 112115Z 17013G22KT 33/11 A3005 RMK A01 T03290111  RH  027%=      5-min Rain = 0
KREE 112120Z 15017G24KT 33/11 A3005 RMK A01 T03290112  RH  027%=      5-min Rain = 0
KREE 112125Z 15017G22KT 33/11 A3004 RMK A01 T03320111  RH  026%=      5-min Rain = 0
KREE 112130Z 17014G20KT 33/11 A3004 RMK A01 T03290108  RH  026%=      5-min Rain = 0
KREE 112135Z 16015G20KT 33/11 A3004 RMK A01 T03290110  RH  027%=      5-min Rain = 0
KREE 112140Z 18017G22KT 33/11 A3004 RMK A01 T03280107  RH  026%=      5-min Rain = 0
KREE 112145Z 15016G21KT 32/11 A3004 RMK A01 T03240107  RH  027%=      5-min Rain = 0
KREE 112150Z 16015G21KT 32/11 A3004 RMK A01 T03240107  RH  027%=      5-min Rain = 0
KREE 112155Z 16014G20KT 33/11 A3003 RMK A01 T03280108  RH  026%=      5-min Rain = 0
KREE 112200Z 16019G26KT 33/11 A3003 RMK A01 T03320107  RH  026%=      5-min Rain = 0
KREE 112205Z 15015KT 33/11 A3003 RMK A01 T03290106  RH  026%=      5-min Rain = 0
KREE 112210Z 16016G23KT 33/11 A3003 RMK A01 T03310107  RH  026%=      5-min Rain = 0
KREE 112215Z 16015G20KT 33/11 A3003 RMK A01 T03270107  RH  026%=      5-min Rain = 0
KREE 112220Z 17015KT 33/11 A3003 RMK A01 T03260107  RH  027%=      5-min Rain = 0
KREE 112225Z 17014G19KT 33/11 A3003 RMK A01 T03290107  RH  026%=      5-min Rain = 0
KREE 112230Z 18014G21KT 33/11 A3003 RMK A01 T03290106  RH  026%=      5-min Rain = 0
KREE 112235Z 18016G22KT 33/11 A3003 RMK A01 T03260110  RH  027%=      5-min Rain = 0
KREE 112240Z 17018G25KT 33/11 A3003 RMK A01 T03270108  RH  027%=      5-min Rain = 0
KREE 112245Z 18015G22KT 33/11 A3003 RMK A01 T03290110  RH  027%=      5-min Rain = 0
KREE 112250Z 19017G22KT 33/11 A3003 RMK A01 T03330108  RH  026%=      5-min Rain = 0
KREE 112255Z 20015G21KT 33/11 A3003 RMK A01 T03290109  RH  027%=      5-min Rain = 0
KREE 112300Z 17015G22KT 33/11 A3003 RMK A01 T03330109  RH  026%=      5-min Rain = 0
KREE 112305Z 16015G22KT 33/11 A3003 RMK A01 T03310110  RH  026%=      5-min Rain = 0
KREE 112310Z 17014G21KT 33/11 A3002 RMK A01 T03330109  RH  026%=      5-min Rain = 0
KREE 112315Z 18016KT 33/11 A3002 RMK A01 T03320107  RH  026%=      5-min Rain = 0
KREE 112320Z 16012G17KT 33/11 A3002 RMK A01 T03300109  RH  026%=      5-min Rain = 0
KREE 112325Z 17016G24KT 33/11 A3002 RMK A01 T03330110  RH  026%=      5-min Rain = 0
KREE 112330Z 17017G22KT 33/11 A3002 RMK A01 T03330110  RH  026%=      5-min Rain = 0
KREE 112335Z 19017KT 33/11 A3002 RMK A01 T03290107  RH  026%=      5-min Rain = 0
KREE 112340Z 19016KT 32/10 A3002 RMK A01 T03240104  RH  026%=      5-min Rain = 0
KREE 112345Z 19016G22KT 33/11 A3002 RMK A01 T03250110  RH  027%=      5-min Rain = 0
KREE 112350Z 18016G23KT 32/11 A3002 RMK A01 T03240110  RH  027%=      5-min Rain = 0
KREE 112355Z 17014KT 33/11 A3002 RMK A01 T03250110  RH  027%=      5-min Rain = 0
KREE 120000Z 18015KT 33/11 A3002 RMK A01 T03250109  RH  027%=      5-min Rain = 0
KREE 120005Z 18014KT 32/11 A3002 RMK A01 T03220109  RH  028%=      5-min Rain = 0
KREE 120010Z 18014G21KT 33/11 A3002 RMK A01 T03270110  RH  027%=      5-min Rain = 0
KREE 120015Z 20016KT 33/11 A3002 RMK A01 T03260110  RH  027%=      5-min Rain = 0
KREE 120020Z 19015G20KT 33/11 A3002 RMK A01 T03250110  RH  027%=      5-min Rain = 0
KREE 120025Z 18017KT 32/11 A3002 RMK A01 T03230110  RH  028%=      5-min Rain = 0
KREE 120030Z 17016G21KT 32/11 A3002 RMK A01 T03190111  RH  028%=      5-min Rain = 0
KREE 120035Z 17015KT 32/11 A3003 RMK A01 T03150108  RH  028%=      5-min Rain = 0
KREE 120040Z 17015KT 31/11 A3003 RMK A01 T03130107  RH  029%=      5-min Rain = 0
KREE 120045Z 16013KT 31/11 A3003 RMK A01 T03120110  RH  029%=      5-min Rain = 0
KREE 120050Z 15014KT 31/11 A3003 RMK A01 T03100111  RH  030%=      5-min Rain = 0
KREE 120055Z 15014KT 31/11 A3003 RMK A01 T03080113  RH  031%=      5-min Rain = 0
KREE 120100Z 14012KT 31/11 A3004 RMK A01 T03080114  RH  031%=      5-min Rain = 0
KREE 120105Z 14011KT 31/12 A3004 RMK A01 T03070117  RH  032%=      5-min Rain = 0
KREE 120110Z 15014KT 31/12 A3004 RMK A01 T03060118  RH  032%=      5-min Rain = 0
KREE 120115Z 15013KT 31/12 A3003 RMK A01 T03050118  RH  032%=      5-min Rain = 0
KREE 120120Z 16012KT 30/12 A3003 RMK A01 T03040116  RH  032%=      5-min Rain = 0
KREE 120125Z 16012KT 30/11 A3004 RMK A01 T03040114  RH  032%=      5-min Rain = 0
KREE 120130Z 16011KT 30/11 A3004 RMK A01 T03030114  RH  032%=      5-min Rain = 0
KREE 120135Z 15012KT 30/11 A3004 RMK A01 T03020114  RH  032%=      5-min Rain = 0
KREE 120140Z 16012KT 30/11 A3004 RMK A01 T03010114  RH  032%=      5-min Rain = 0
KREE 120145Z 16011KT 30/11 A3004 RMK A01 T03000114  RH  032%=      5-min Rain = 0
KREE 120150Z 15011KT 30/11 A3004 RMK A01 T02990114  RH  032%=      5-min Rain = 0
KREE 120155Z 15011KT 30/11 A3004 RMK A01 T02980114  RH  033%=      5-min Rain = 0
KREE 120200Z 15010KT 30/12 A3004 RMK A01 T02970115  RH  033%=      5-min Rain = 0
KREE 120205Z 15010KT 30/12 A3004 RMK A01 T02960116  RH  034%=      5-min Rain = 0
KREE 120210Z 15009KT 29/12 A3005 RMK A01 T02940117  RH  034%=      5-min Rain = 0
KREE 120215Z 15009KT 29/12 A3005 RMK A01 T02930117  RH  034%=      5-min Rain = 0
KREE 120220Z 15008KT 29/12 A3005 RMK A01 T02920117  RH  034%=      5-min Rain = 0
KREE 120225Z 15008KT 29/12 A3005 RMK A01 T02900118  RH  035%=      5-min Rain = 0
KREE 120230Z 14009KT 29/12 A3005 RMK A01 T02900119  RH  035%=      5-min Rain = 0
KREE 120235Z 14009KT 29/12 A3006 RMK A01 T02900121  RH  036%=      5-min Rain = 0
KREE 120240Z 14010KT 29/12 A3006 RMK A01 T02900122  RH  036%=      5-min Rain = 0
KREE 120245Z 14010KT 29/12 A3006 RMK A01 T02890123  RH  037%=      5-min Rain = 0
KREE 120250Z 14011KT 29/12 A3006 RMK A01 T02880123  RH  037%=      5-min Rain = 0
KREE 120255Z 15010KT 29/12 A3007 RMK A01 T02880123  RH  037%=      5-min Rain = 0
KREE 120300Z 15009KT 29/12 A3007 RMK A01 T02870123  RH  037%=      5-min Rain = 0
KREE 120305Z 15009KT 29/12 A3007 RMK A01 T02860123  RH  037%=      5-min Rain = 0
KREE 120310Z 15008KT 29/12 A3007 RMK A01 T02850124  RH  038%=      5-min Rain = 0
KREE 120315Z 16008KT 28/12 A3008 RMK A01 T02840124  RH  038%=      5-min Rain = 0
KREE 120320Z 16008KT 28/12 A3008 RMK A01 T02840124  RH  038%=      5-min Rain = 0
KREE 120325Z 16008KT 28/13 A3008 RMK A01 T02830125  RH  038%=      5-min Rain = 0
KREE 120330Z 16008KT 28/13 A3008 RMK A01 T02810126  RH  039%=      5-min Rain = 0
KREE 120335Z 16009KT 28/13 A3009 RMK A01 T02800127  RH  039%=      5-min Rain = 0
KREE 120340Z 16009KT 28/13 A3009 RMK A01 T02790127  RH  040%=      5-min Rain = 0
KREE 120345Z 14008KT 28/13 A3009 RMK A01 T02780128  RH  040%=      5-min Rain = 0
KREE 120350Z 13008KT 28/13 A3009 RMK A01 T02770129  RH  041%=      5-min Rain = 0
KREE 120355Z 13009KT 28/13 A3009 RMK A01 T02770130  RH  041%=      5-min Rain = 0
KREE 120400Z 14009KT 28/13 A3009 RMK A01 T02770131  RH  041%=      5-min Rain = 0
KREE 120405Z 13009KT 28/13 A3009 RMK A01 T02770131  RH  042%=      5-min Rain = 0
KREE 120410Z 13009KT 28/13 A301 RMK A01 T02750134  RH  043%=      5-min Rain = 0
KREE 120415Z 13008KT 27/14 A301 RMK A01 T02730135  RH  043%=      5-min Rain = 0
KREE 120420Z 13010KT 27/13 A301 RMK A01 T02740134  RH  043%=      5-min Rain = 0
KREE 120425Z 13010KT 27/14 A301 RMK A01 T02730135  RH  043%=      5-min Rain = 0
KREE 120430Z 13010KT 27/14 A301 RMK A01 T02730135  RH  043%=      5-min Rain = 0
KREE 120435Z 14011KT 27/13 A3011 RMK A01 T02730134  RH  043%=      5-min Rain = 0
KREE 120440Z 15011KT 27/13 A3011 RMK A01 T02730134  RH  043%=      5-min Rain = 0
KREE 120445Z 17011KT 27/14 A3012 RMK A01 T02720135  RH  044%=      5-min Rain = 0
KREE 120450Z 23009KT 27/14 A3012 RMK A01 T02660139  RH  047%=      5-min Rain = 0
KREE 120455Z 23008KT 26/14 A3012 RMK A01 T02640135  RH  046%=      5-min Rain = 0
KREE 120500Z 22005KT 27/14 A3012 RMK A01 T02660136  RH  045%=      5-min Rain = 0

Page generated in 0.0272 seconds.